Time;durP1;ratioP1;P1;durP2;ratioP2;P2;SDS_P1;SDS_P2;PMS_P1;PMS_P2;Temp;Humidity;BMP_temperature;BMP_pressure;BME280_temperature;BME280_humidity;BME280_pressure;Samples;Min_cycle;Max_cycle;Signal;HPM_P1;HPM_P2
2023/03/31 00:01:06;;;;;;;7.88;2.08;;;;;;;13.40;71.49;98639.09;4975873;28;20122;-78
2023/03/31 00:03:32;;;;;;;7.65;2.10;;;;;;;13.39;71.42;98642.69;4958760;28;20117;-79
2023/03/31 00:06:00;;;;;;;9.85;2.60;;;;;;;13.38;71.44;98638.38;4975639;28;20047;-80
2023/03/31 00:08:28;;;;;;;7.80;2.05;;;;;;;13.38;71.46;98638.38;4975299;28;20051;-80
2023/03/31 00:10:59;;;;;;;8.18;2.58;;;;;;;13.37;71.23;98642.00;4976182;28;20055;-79
2023/03/31 00:13:26;;;;;;;7.35;2.40;;;;;;;13.39;71.26;98647.16;4974607;28;20538;-79
2023/03/31 00:15:59;;;;;;;11.02;2.72;;;;;;;13.34;70.68;98634.34;4975239;28;20050;-79
2023/03/31 00:18:26;;;;;;;7.90;2.33;;;;;;;13.36;71.45;98635.06;4958198;28;20047;-79
2023/03/31 00:20:53;;;;;;;10.45;2.53;;;;;;;13.37;71.30;98630.59;4975529;28;20511;-78
2023/03/31 00:23:26;;;;;;;6.63;1.92;;;;;;;13.34;71.20;98617.66;4975475;28;20047;-78
2023/03/31 00:25:54;;;;;;;14.48;1.90;;;;;;;13.32;71.06;98614.28;4975063;28;20051;-78
2023/03/31 00:28:21;;;;;;;10.57;2.38;;;;;;;13.29;71.00;98610.13;4975414;28;20046;-78
2023/03/31 00:30:48;;;;;;;10.68;2.22;;;;;;;13.26;71.02;98602.44;4958417;28;20065;-78
2023/03/31 00:33:14;;;;;;;9.02;2.40;;;;;;;13.19;70.66;98594.22;4975460;28;20456;-78
2023/03/31 00:35:42;;;;;;;8.60;2.10;;;;;;;13.15;70.76;98584.88;4974878;28;20451;-78
2023/03/31 00:38:12;;;;;;;6.80;1.80;;;;;;;13.08;70.71;98587.22;4974274;28;20103;-79
2023/03/31 00:40:45;;;;;;;7.93;1.80;;;;;;;13.02;70.59;98585.13;4975074;28;20051;-79
2023/03/31 00:43:28;;;;;;;9.65;2.10;;;;;;;12.94;69.93;98585.78;4958121;28;20077;-82
2023/03/31 00:45:59;;;;;;;;;;;;;;;12.92;69.65;98592.16;4975114;28;20125;-82
2023/03/31 00:48:26;;;;;;;7.85;1.85;;;;;;;12.92;70.70;98586.88;4974595;28;19925;-80
2023/03/31 00:50:55;;;;;;;9.80;2.17;;;;;;;12.85;71.01;98581.28;4958001;28;20047;-80
2023/03/31 00:53:25;;;;;;;9.05;2.30;;;;;;;12.77;71.13;98579.28;4975641;28;20055;-81
2023/03/31 00:55:54;;;;;;;7.53;2.05;;;;;;;12.71;71.13;98574.56;4974667;28;20514;-80
2023/03/31 00:58:27;;;;;;;8.63;2.40;;;;;;;12.68;71.27;98570.38;4974445;28;20089;-80
2023/03/31 01:00:56;;;;;;;7.03;1.85;;;;;;;12.64;71.40;98571.59;4975214;28;20114;-83
2023/03/31 01:03:24;;;;;;;7.95;2.15;;;;;;;12.61;71.42;98562.13;4975356;28;20054;-79
2023/03/31 01:05:58;;;;;;;10.95;2.50;;;;;;;12.55;71.26;98560.00;4974508;28;20043;-79
2023/03/31 01:08:26;;;;;;;7.78;2.00;;;;;;;12.53;71.58;98559.31;4974632;28;20404;-79
2023/03/31 01:10:56;;;;;;;13.30;2.72;;;;;;;12.49;71.56;98561.34;4974703;28;20073;-80
2023/03/31 01:13:26;;;;;;;7.38;2.45;;;;;;;12.45;71.90;98540.63;4974748;28;20389;-79
2023/03/31 01:15:53;;;;;;;6.30;2.10;;;;;;;12.43;71.69;98529.38;4957218;28;20046;-79
2023/03/31 01:18:20;;;;;;;7.55;2.05;;;;;;;12.38;71.93;98533.22;4974310;28;20447;-78
2023/03/31 01:21:05;;;;;;;7.72;2.25;;;;;;;12.34;71.79;98531.00;4974659;28;20054;-80
2023/03/31 01:23:54;;;;;;;8.48;2.38;;;;;;;12.27;71.51;98521.91;4974490;28;20055;-79
2023/03/31 01:26:38;;;;;;;7.72;2.38;;;;;;;12.25;71.72;98528.16;4974121;28;20050;-82
2023/03/31 01:29:44;;;;;;;8.27;2.83;;;;;;;12.20;71.74;98524.22;4974500;28;20106;-79
2023/03/31 01:32:30;;;;;;;8.07;2.78;;;;;;;12.17;71.95;98511.28;4935324;28;20058;-78
2023/03/31 01:35:35;;;;;;;6.65;2.70;;;;;;;12.14;72.13;98512.38;4973825;28;20499;-78
2023/03/31 01:38:38;;;;;;;9.75;3.00;;;;;;;12.08;72.17;98505.81;4973820;28;20053;-82
2023/03/31 01:41:20;;;;;;;;;;;;;;;12.09;71.90;98507.50;4973327;28;20057;-78
2023/03/31 01:43:58;;;;;;;9.23;3.15;;;;;;;12.07;72.20;98504.16;4956848;28;19922;-79
2023/03/31 01:46:31;;;;;;;10.73;3.35;;;;;;;12.05;72.61;98495.53;4973625;28;20058;-78
2023/03/31 01:49:07;;;;;;;10.88;3.58;;;;;;;12.03;72.64;98489.50;4973346;28;20549;-81
2023/03/31 01:51:42;;;;;;;9.55;3.60;;;;;;;11.99;72.72;98488.09;4973649;28;20043;-79
2023/03/31 01:54:21;;;;;;;13.15;3.63;;;;;;;11.99;72.78;98480.19;4974024;28;20051;-79
2023/03/31 01:56:57;;;;;;;9.00;3.08;;;;;;;11.97;73.06;98479.50;4973336;28;20113;-80
2023/03/31 01:59:32;;;;;;;11.63;3.47;;;;;;;11.97;73.15;98477.66;4974230;28;20157;-78
2023/03/31 02:02:16;;;;;;;9.00;3.55;;;;;;;11.95;73.16;98466.44;4956893;28;20058;-80
2023/03/31 02:04:55;;;;;;;12.32;3.60;;;;;;;11.95;73.25;98469.06;4956528;28;20057;-80
2023/03/31 02:07:33;;;;;;;10.63;3.83;;;;;;;11.95;73.42;98465.59;4973507;28;20053;-80
2023/03/31 02:10:04;;;;;;;12.05;4.20;;;;;;;11.97;73.36;98459.22;4956636;28;20118;-81
2023/03/31 02:12:33;;;;;;;10.27;3.55;;;;;;;11.99;73.71;98456.44;4973784;28;20050;-81
2023/03/31 02:15:04;;;;;;;12.80;3.55;;;;;;;11.98;73.77;98450.34;4973410;28;20059;-80
2023/03/31 02:17:31;;;;;;;11.30;3.70;;;;;;;12.01;74.01;98446.63;4973189;28;20054;-79
2023/03/31 02:20:06;;;;;;;10.55;4.03;;;;;;;11.99;73.55;98441.47;4956262;28;20515;-80
2023/03/31 02:22:38;;;;;;;11.95;4.47;;;;;;;12.04;73.74;98434.97;4973599;28;20447;-79
2023/03/31 02:25:09;;;;;;;8.50;3.38;;;;;;;12.04;73.78;98440.25;4955992;28;20098;-79
2023/03/31 02:27:41;;;;;;;10.57;4.70;;;;;;;12.04;73.61;98435.78;4973293;28;20102;-81
2023/03/31 02:30:10;;;;;;;12.35;4.55;;;;;;;12.06;73.77;98431.28;4973649;28;20054;-81
2023/03/31 02:32:40;;;;;;;10.60;4.50;;;;;;;12.07;73.83;98424.19;4973311;28;20093;-79
2023/03/31 02:35:11;;;;;;;12.68;4.28;;;;;;;12.07;73.87;98425.03;4956122;28;20551;-79
2023/03/31 02:37:39;;;;;;;11.20;4.15;;;;;;;12.11;73.90;98415.03;4973178;28;20105;-79
2023/03/31 02:40:10;;;;;;;11.68;4.40;;;;;;;12.11;73.87;98417.66;4956375;28;20105;-79
2023/03/31 02:42:41;;;;;;;6.50;3.75;;;;;;;12.10;73.87;98413.38;4973433;28;20057;-81
2023/03/31 02:45:36;;;;;;;10.15;4.28;;;;;;;12.08;73.74;98402.13;4973118;28;20058;-81
2023/03/31 02:48:10;;;;;;;7.80;4.18;;;;;;;12.14;73.81;98393.69;4949387;28;20055;-81
2023/03/31 02:51:07;;;;;;;7.95;3.80;;;;;;;12.10;73.71;98393.13;4973160;28;20051;-80
2023/03/31 02:53:53;;;;;;;10.88;4.40;;;;;;;12.16;74.00;98380.38;4973417;28;20047;-79
2023/03/31 02:56:57;;;;;;;7.68;3.72;;;;;;;12.11;73.95;98383.38;4972888;28;20081;-83
2023/03/31 02:59:57;;;;;;;11.18;4.47;;;;;;;12.11;74.05;98381.59;4972979;28;20054;-82
2023/03/31 03:02:41;;;;;;;10.95;4.25;;;;;;;12.09;74.18;98373.00;4976778;28;20046;-81
2023/03/31 03:05:48;;;;;;;13.05;4.55;;;;;;;12.05;74.51;98368.94;4976907;28;20125;-81
2023/03/31 03:08:54;;;;;;;9.82;4.05;;;;;;;12.03;74.52;98370.84;4931619;28;20085;-80
2023/03/31 03:11:30;;;;;;;9.90;4.10;;;;;;;11.99;74.91;98358.88;4976134;28;20063;-80
2023/03/31 03:14:06;;;;;;;12.00;3.95;;;;;;;11.97;74.87;98345.00;4976743;28;20130;-81
2023/03/31 03:16:40;;;;;;;8.60;3.95;;;;;;;11.96;75.33;98345.97;4976172;28;20512;-91
2023/03/31 03:19:07;;;;;;;8.73;3.38;;;;;;;11.96;74.91;98343.34;4959993;28;20105;-84
2023/03/31 03:21:34;;;;;;;8.13;3.55;;;;;;;11.94;75.34;98332.91;4976936;28;20113;-80
2023/03/31 03:24:01;;;;;;;7.40;3.80;;;;;;;11.93;75.35;98318.03;4959549;28;20085;-84
2023/03/31 03:26:27;;;;;;;7.18;3.40;;;;;;;11.92;75.47;98307.66;4975478;28;20057;-80
2023/03/31 03:28:55;;;;;;;8.40;4.05;;;;;;;11.92;75.57;98308.47;4976293;28;20043;-80
2023/03/31 03:31:24;;;;;;;10.77;4.03;;;;;;;11.92;75.87;98303.19;4976368;28;20499;-80
2023/03/31 03:33:52;;;;;;;11.15;4.20;;;;;;;11.91;75.93;98282.22;4976920;28;20062;-81
2023/03/31 09:36:33;;;;;;;3.85;2.20;;;;;;;12.07;80.27;97807.88;5032052;23;20057;31
2023/03/31 09:39:00;;;;;;;4.63;2.20;;;;;;;12.05;80.13;97803.72;4947832;29;20051;-80
2023/03/31 09:41:26;;;;;;;4.22;1.90;;;;;;;12.05;80.67;97795.78;4951651;28;20396;-79
2023/03/31 09:43:53;;;;;;;4.97;1.95;;;;;;;12.04;80.60;97794.94;4953305;28;20059;-80
2023/03/31 09:46:29;;;;;;;5.18;1.60;;;;;;;12.02;79.99;97789.00;4954046;28;20573;-80
2023/03/31 09:49:05;;;;;;;3.50;1.40;;;;;;;12.04;79.77;97799.41;4954226;28;20145;-80
2023/03/31 09:51:36;;;;;;;3.25;1.50;;;;;;;12.04;80.03;97791.50;4971711;28;20090;-80
2023/03/31 09:54:18;;;;;;;3.03;1.65;;;;;;;12.02;78.89;97789.00;4972129;28;20061;-80
2023/03/31 09:56:51;;;;;;;4.78;1.63;;;;;;;12.06;80.39;97790.41;4970787;28;20125;-80
2023/03/31 09:59:28;;;;;;;2.38;1.02;;;;;;;12.07;80.11;97793.88;4971884;28;20137;-80
2023/03/31 10:01:58;;;;;;;1.67;1.20;;;;;;;12.07;80.25;97784.16;4971854;28;20101;-80
2023/03/31 10:04:29;;;;;;;2.28;1.13;;;;;;;12.10;80.46;97789.16;4954715;28;20061;-80
2023/03/31 10:06:56;;;;;;;3.10;1.17;;;;;;;12.11;80.38;97782.88;4970590;28;20061;-80
2023/03/31 10:09:29;;;;;;;2.72;1.00;;;;;;;12.11;80.08;97777.59;4971766;28;20055;-80
2023/03/31 10:12:03;;;;;;;2.28;1.30;;;;;;;12.14;80.00;97780.94;4970979;28;20055;-80
2023/03/31 10:14:39;;;;;;;3.15;1.55;;;;;;;12.14;79.27;97779.13;4971632;28;20584;-80
2023/03/31 10:17:06;;;;;;;2.58;1.13;;;;;;;12.20;79.99;97780.34;4953050;28;20075;-80
2023/03/31 10:19:38;;;;;;;1.67;1.20;;;;;;;12.18;79.37;97777.03;4971508;28;20062;-80
2023/03/31 10:22:21;;;;;;;4.93;1.27;;;;;;;12.17;79.02;97785.91;4971424;28;20145;-80
2023/03/31 10:24:50;;;;;;;3.17;1.13;;;;;;;12.20;80.22;97789.09;4971479;28;20058;-80
2023/03/31 10:27:23;;;;;;;1.40;1.10;;;;;;;12.18;79.44;97783.13;4971019;28;20054;-80
2023/03/31 10:29:54;;;;;;;2.35;1.20;;;;;;;12.18;79.46;97779.69;4971327;28;20530;-80
2023/03/31 10:32:26;;;;;;;2.53;1.52;;;;;;;12.18;79.73;97771.78;4954282;28;20054;-80
2023/03/31 10:34:54;;;;;;;3.08;1.50;;;;;;;12.18;80.13;97775.22;4953699;28;20090;-80
2023/03/31 10:37:23;;;;;;;5.40;1.65;;;;;;;12.17;80.28;97759.53;4970645;28;20417;-80
2023/03/31 10:40:06;;;;;;;2.75;1.60;;;;;;;12.15;79.96;97761.50;4971378;28;20054;-80
2023/03/31 10:42:32;;;;;;;2.93;2.00;;;;;;;12.20;80.39;97775.06;4954326;28;20055;-79
2023/03/31 10:45:35;;;;;;;4.57;2.20;;;;;;;12.16;79.76;97765.78;4970660;28;20113;-79
2023/03/31 10:48:15;;;;;;;4.22;1.88;;;;;;;12.19;80.56;97757.59;4971067;28;20128;-79
2023/03/31 10:50:42;;;;;;;4.68;2.60;;;;;;;12.22;80.83;97757.28;4971075;28;20094;-80
2023/03/31 10:53:16;;;;;;;4.70;2.03;;;;;;;12.20;80.40;97760.09;4971322;28;20054;-80
2023/03/31 10:56:21;;;;;;;3.38;1.92;;;;;;;12.19;80.19;97754.97;4970770;28;20106;-79
2023/03/31 10:59:02;;;;;;;4.97;2.38;;;;;;;12.19;80.73;97753.13;4940906;28;20667;-80
2023/03/31 11:02:05;;;;;;;4.10;1.90;;;;;;;12.17;80.49;97744.56;4970989;28;20120;-80
2023/03/31 11:05:04;;;;;;;5.60;2.50;;;;;;;12.18;80.40;97740.94;4970316;28;20629;-80
2023/03/31 11:07:52;;;;;;;5.97;2.22;;;;;;;12.19;80.54;97741.78;4970161;28;20576;-80
2023/03/31 11:10:35;;;;;;;6.57;2.20;;;;;;;12.19;80.61;97733.84;4954157;28;20058;-80
2023/03/31 11:13:13;;;;;;;6.20;2.40;;;;;;;12.20;81.04;97728.44;4971077;28;20502;-79
2023/03/31 11:15:53;;;;;;;5.18;2.38;;;;;;;12.27;81.49;97733.09;4969687;28;20078;-79
2023/03/31 11:18:44;;;;;;;5.35;2.30;;;;;;;12.24;80.90;97724.53;4972551;28;20510;-80
2023/03/31 11:21:36;;;;;;;10.18;2.78;;;;;;;12.28;80.95;97727.69;4969335;28;20054;-80
2023/03/31 11:24:09;;;;;;;4.28;2.15;;;;;;;12.35;82.11;97727.91;4985105;28;20054;-80
2023/03/31 11:26:43;;;;;;;7.07;2.40;;;;;;;12.35;81.25;97722.66;4974473;28;20082;-80
2023/03/31 11:29:32;;;;;;;8.07;2.85;;;;;;;12.38;81.34;97719.72;4992722;28;20051;-81
2023/03/31 11:32:30;;;;;;;8.63;2.80;;;;;;;12.42;81.07;97714.97;4975674;28;20298;-80
2023/03/31 11:34:57;;;;;;;11.70;2.90;;;;;;;12.50;82.52;97721.16;4990805;28;20097;-80
2023/03/31 11:37:45;;;;;;;6.85;2.90;;;;;;;12.51;81.96;97714.88;4992935;28;20062;-80
2023/03/31 11:40:26;;;;;;;11.43;3.33;;;;;;;12.60;83.06;97718.41;4993735;28;20494;-80
2023/03/31 11:43:11;;;;;;;8.40;3.50;;;;;;;12.72;83.81;97713.75;4992645;28;20085;-80
2023/03/31 11:45:54;;;;;;;8.75;3.58;;;;;;;12.90;84.77;97712.91;4992635;28;20096;-80
2023/03/31 11:48:44;;;;;;;13.50;3.80;;;;;;;13.07;84.28;97711.22;4993117;28;20058;-80
2023/03/31 11:51:21;;;;;;;10.38;3.50;;;;;;;13.30;85.54;97708.03;4993213;28;20113;-84
2023/03/31 11:53:52;;;;;;;7.43;2.97;;;;;;;13.52;87.11;97703.25;4992923;28;20116;-80
2023/03/31 11:56:21;;;;;;;8.68;3.30;;;;;;;13.72;85.53;97708.31;4992321;28;20508;-80
2023/03/31 11:58:55;;;;;;;8.93;3.70;;;;;;;13.89;82.72;97698.59;4992683;28;20066;-80
2023/03/31 12:01:28;;;;;;;12.80;4.03;;;;;;;14.05;83.47;97703.13;4991088;28;20054;-79
2023/03/31 12:04:13;;;;;;;9.00;3.80;;;;;;;14.23;82.08;97708.31;4976273;28;20410;-80
2023/03/31 12:06:41;;;;;;;8.73;3.97;;;;;;;14.48;85.60;97702.22;4992508;28;20401;-80
2023/03/31 12:09:22;;;;;;;7.35;3.88;;;;;;;14.69;83.81;97694.63;4993681;28;20102;-80
2023/03/31 12:12:03;;;;;;;8.60;3.83;;;;;;;14.91;80.83;97694.97;4993221;28;20450;-79
2023/03/31 12:14:53;;;;;;;8.30;3.58;;;;;;;15.19;79.62;97699.94;4992121;28;20058;-80
2023/03/31 12:17:25;;;;;;;8.88;3.15;;;;;;;15.46;81.44;97695.22;4992837;28;20046;-80
2023/03/31 12:19:56;;;;;;;6.30;3.45;;;;;;;15.71;83.54;97683.72;4975826;28;20604;-80
2023/03/31 12:22:30;;;;;;;7.65;2.97;;;;;;;15.91;76.50;97676.16;4993127;28;20086;-80
2023/03/31 12:24:57;;;;;;;8.45;2.92;;;;;;;16.07;78.16;97679.75;4992977;28;20057;-80
2023/03/31 12:27:29;;;;;;;8.05;3.35;;;;;;;16.13;75.55;97671.09;4975264;28;20157;-79
2023/03/31 12:30:03;;;;;;;5.60;2.50;;;;;;;16.12;73.73;97669.44;4975878;28;20054;-80
2023/03/31 12:32:37;;;;;;;7.68;2.83;;;;;;;16.10;74.80;97671.44;4992965;28;20108;-79
2023/03/31 12:35:26;;;;;;;8.80;2.65;;;;;;;16.08;74.83;97670.78;4991831;28;20054;-80
2023/03/31 12:38:10;;;;;;;6.80;3.88;;;;;;;16.19;80.05;97670.41;4992384;28;20058;-80
2023/03/31 12:40:50;;;;;;;6.05;2.58;;;;;;;16.25;74.88;97653.75;4992847;28;20100;-80
2023/03/31 12:43:54;;;;;;;7.53;2.53;;;;;;;16.31;71.73;97659.38;4992392;28;20054;-80
2023/03/31 12:46:51;;;;;;;5.63;2.45;;;;;;;16.27;71.40;97651.75;4992182;28;20117;-80
2023/03/31 12:49:42;;;;;;;7.78;2.75;;;;;;;16.16;71.29;97668.09;4992879;28;20054;-80
2023/03/31 12:52:21;;;;;;;7.72;2.60;;;;;;;16.05;72.62;97663.16;4992633;28;20062;-80
2023/03/31 12:55:08;;;;;;;6.07;2.55;;;;;;;15.96;73.14;97659.75;4992758;28;20062;-80
2023/03/31 12:57:34;;;;;;;6.05;2.42;;;;;;;15.90;75.68;97654.09;4992050;28;20504;-80
2023/03/31 13:00:10;;;;;;;10.88;2.88;;;;;;;15.88;75.69;97652.63;4992675;28;20568;-80
2023/03/31 13:02:38;;;;;;;9.95;2.92;;;;;;;15.98;79.68;97641.81;4992288;28;20058;-80
2023/03/31 13:05:36;;;;;;;8.48;2.92;;;;;;;16.13;76.17;97639.25;4991429;28;20476;-83
2023/03/31 13:08:09;;;;;;;7.97;2.70;;;;;;;16.36;75.85;97633.94;4986119;28;20117;-83
2023/03/31 13:10:56;;;;;;;11.27;2.88;;;;;;;16.47;70.99;97630.03;4991694;28;20062;-83
2023/03/31 13:13:24;;;;;;;8.23;2.50;;;;;;;16.55;73.81;97639.75;4991621;28;20061;-83
2023/03/31 13:15:55;;;;;;;8.23;2.78;;;;;;;16.48;71.34;97641.50;4990015;28;20070;-83
2023/03/31 13:18:23;;;;;;;11.15;2.33;;;;;;;16.35;70.92;97650.03;4973613;28;20526;-83
2023/03/31 13:21:04;;;;;;;6.65;1.88;;;;;;;16.08;68.77;97646.91;4992222;28;20062;-83
2023/03/31 13:23:34;;;;;;;7.72;2.45;;;;;;;15.83;68.38;97647.84;4974695;28;20141;-84
2023/03/31 13:26:01;;;;;;;6.53;1.85;;;;;;;15.57;70.25;97656.91;4992239;28;20064;-83
2023/03/31 13:29:09;;;;;;;14.77;2.53;;;;;;;15.21;69.61;97652.03;4991667;28;20046;-84
2023/03/31 13:32:01;;;;;;;8.30;2.00;;;;;;;14.93;70.93;97653.28;4990539;28;20543;-83
2023/03/31 13:34:33;;;;;;;8.68;2.50;;;;;;;14.78;73.62;97647.81;4991838;28;20050;-83
2023/03/31 13:37:34;;;;;;;8.45;2.42;;;;;;;14.61;73.17;97652.25;4991062;28;20062;-83
2023/03/31 13:40:25;;;;;;;9.57;2.10;;;;;;;14.58;74.87;97652.59;4941077;28;20058;-84
2023/03/31 13:43:30;;;;;;;15.77;2.80;;;;;;;14.57;75.07;97649.13;4974392;28;20059;-83
2023/03/31 13:46:14;;;;;;;9.10;2.17;;;;;;;14.59;74.53;97651.59;4991713;28;20141;-83
2023/03/31 13:49:08;;;;;;;9.05;2.17;;;;;;;14.62;74.84;97653.94;4991274;28;20370;-83
2023/03/31 13:51:35;;;;;;;;;;;;;;;14.63;73.26;97641.50;4991918;28;20050;-83
2023/03/31 13:54:07;;;;;;;11.23;2.88;;;;;;;14.68;76.67;97652.41;4991570;28;20453;-83
2023/03/31 13:57:11;;;;;;;8.93;2.40;;;;;;;14.62;74.33;97642.50;4990686;28;20050;-83
2023/03/31 13:59:57;;;;;;;11.57;2.33;;;;;;;14.63;75.16;97645.00;4991497;28;20068;-83
2023/03/31 14:02:30;;;;;;;11.68;2.40;;;;;;;14.63;76.08;97647.63;4974012;28;20090;-83
2023/03/31 14:05:16;;;;;;;13.13;2.72;;;;;;;14.58;74.05;97642.03;4990862;28;20061;-83
2023/03/31 14:07:46;;;;;;;11.15;2.20;;;;;;;14.59;75.43;97646.31;4991247;28;20058;-83
2023/03/31 14:10:31;;;;;;;9.13;2.20;;;;;;;14.57;74.11;97638.53;4990649;28;20065;-84
2023/03/31 14:13:15;;;;;;;8.45;2.35;;;;;;;14.57;73.68;97641.19;4991436;28;20062;-83
2023/03/31 14:15:56;;;;;;;10.63;2.35;;;;;;;14.64;75.49;97641.34;4990954;28;20473;-83
2023/03/31 14:18:29;;;;;;;7.25;2.05;;;;;;;14.69;75.46;97632.91;4991138;28;20054;-83
2023/03/31 14:21:03;;;;;;;8.07;1.83;;;;;;;14.77;77.30;97634.75;4990929;28;20058;-83
2023/03/31 14:23:35;;;;;;;8.55;2.10;;;;;;;14.80;75.85;97635.22;4973828;28;20069;-83
2023/03/31 14:26:10;;;;;;;9.70;2.30;;;;;;;14.87;75.84;97630.09;4988916;28;20062;-83
2023/03/31 14:28:40;;;;;;;8.65;2.25;;;;;;;14.93;75.49;97626.78;4973555;28;20054;-84
2023/03/31 14:31:11;;;;;;;10.40;2.20;;;;;;;14.98;75.07;97626.25;4989057;28;20062;-83
2023/03/31 14:34:00;;;;;;;9.17;2.53;;;;;;;15.04;72.36;97616.81;4991073;28;20062;-83
2023/03/31 14:36:57;;;;;;;11.20;2.10;;;;;;;15.13;73.99;97625.59;4989972;28;20161;-83
2023/03/31 14:39:33;;;;;;;6.88;1.90;;;;;;;15.21;73.07;97618.41;4973507;28;20089;-83
2023/03/31 14:42:10;;;;;;;11.93;3.00;;;;;;;15.30;75.33;97613.94;4989179;28;20069;-83
2023/03/31 14:44:37;;;;;;;5.45;2.00;;;;;;;15.40;76.66;97608.41;4990550;28;20078;-81
2023/03/31 14:47:05;;;;;;;11.98;2.28;;;;;;;15.49;76.59;97604.75;4972368;28;20065;-84
2023/03/31 14:49:37;;;;;;;9.38;2.75;;;;;;;15.58;75.19;97610.00;4990741;28;20081;-83
2023/03/31 14:52:17;;;;;;;14.70;2.40;;;;;;;15.67;73.48;97605.47;4989713;28;20406;-83
2023/03/31 14:54:46;;;;;;;8.65;2.42;;;;;;;15.75;74.92;97606.25;4973396;28;20058;-84
2023/03/31 14:57:19;;;;;;;8.68;2.28;;;;;;;15.75;72.92;97598.28;4991191;28;20058;-84
2023/03/31 14:59:48;;;;;;;6.55;2.00;;;;;;;15.79;73.51;97604.09;4994858;28;20109;-84
2023/03/31 15:02:19;;;;;;;11.25;2.03;;;;;;;15.72;72.07;97593.34;4994816;28;20062;-84
2023/03/31 15:04:49;;;;;;;7.57;2.10;;;;;;;15.71;72.16;97598.84;4977074;28;20058;-84
2023/03/31 15:07:16;;;;;;;6.07;1.98;;;;;;;15.71;73.26;97594.38;4993943;28;20093;-84
2023/03/31 15:09:48;;;;;;;9.85;2.35;;;;;;;15.68;71.63;97589.41;4994942;28;20069;-84
2023/03/31 15:12:18;;;;;;;10.02;2.08;;;;;;;15.71;73.28;97583.75;4993371;28;20058;-83
2023/03/31 15:14:48;;;;;;;9.93;2.50;;;;;;;15.77;73.99;97583.03;4993176;28;20069;-84
2023/03/31 15:17:24;;;;;;;8.18;2.17;;;;;;;15.87;73.01;97587.28;4976727;28;20138;-84
2023/03/31 15:19:59;;;;;;;10.65;2.17;;;;;;;16.07;75.46;97570.97;4974242;28;20596;-84
2023/03/31 15:22:28;;;;;;;10.65;2.60;;;;;;;16.33;76.49;97583.03;4981486;28;20133;-84
2023/03/31 15:24:56;;;;;;;7.45;1.90;;;;;;;16.58;76.43;97575.69;4964965;28;20091;-84
2023/03/31 15:27:36;;;;;;;8.13;2.40;;;;;;;16.74;69.42;97571.22;4973986;28;20661;-84
2023/03/31 15:30:24;;;;;;;11.15;2.50;;;;;;;16.88;68.03;97566.91;4974925;28;20224;-84
2023/03/31 15:32:51;;;;;;;9.18;2.15;;;;;;;16.94;70.77;97561.69;4957795;28;20137;-84
2023/03/31 15:35:33;;;;;;;9.77;2.25;;;;;;;16.88;66.23;97564.25;4958250;28;20501;-84
2023/03/31 15:38:03;;;;;;;8.70;2.30;;;;;;;16.85;68.05;97561.97;5006075;22;20054;-80
2023/03/31 15:41:04;;;;;;;10.05;2.33;;;;;;;16.65;65.20;97558.03;4993733;28;20064;-79
2023/03/31 15:43:40;;;;;;;6.85;1.70;;;;;;;16.52;66.14;97579.06;4994041;28;20054;-79
2023/03/31 15:46:38;;;;;;;9.45;1.98;;;;;;;16.31;64.67;97569.09;5021870;28;20046;-79
2023/03/31 15:49:19;;;;;;;8.70;1.90;;;;;;;16.06;66.43;97532.97;5014221;28;20058;-79
2023/03/31 15:51:50;;;;;;;7.63;1.67;;;;;;;15.93;69.41;97564.56;5014319;28;20068;-79
2023/03/31 15:54:49;;;;;;;10.05;2.00;;;;;;;15.65;67.00;97549.97;5008515;28;20486;-79
2023/03/31 15:57:34;;;;;;;10.05;2.35;;;;;;;15.50;68.63;97549.88;5001356;28;20049;-79
2023/03/31 16:01:03;;;;;;;6.63;1.65;;;;;;;15.33;68.93;97546.50;4995825;28;20129;-78
2023/03/31 16:03:39;;;;;;;6.15;1.63;;;;;;;15.24;70.94;97546.53;4984396;28;20054;-79
2023/03/31 16:06:44;;;;;;;5.88;1.95;;;;;;;15.14;68.67;97543.25;4985048;28;20050;-79
2023/03/31 16:09:18;;;;;;;7.78;2.08;;;;;;;15.15;72.52;97538.78;4993250;28;20054;-79
2023/03/31 16:11:50;;;;;;;7.20;1.73;;;;;;;15.06;70.19;97545.94;4993670;28;20553;-79
2023/03/31 16:14:26;;;;;;;9.45;1.75;;;;;;;15.01;70.20;97548.25;4993223;28;20415;-78
2023/03/31 16:17:01;;;;;;;9.77;2.20;;;;;;;14.94;70.83;97559.56;4993210;28;20065;-79
2023/03/31 16:19:38;;;;;;;6.35;2.45;;;;;;;14.89;71.85;97551.31;4993305;28;20058;-79
2023/03/31 16:22:05;;;;;;;8.98;2.38;;;;;;;14.83;72.63;97559.91;4993531;28;20491;-79
2023/03/31 16:24:33;;;;;;;12.10;3.35;;;;;;;14.72;72.46;97548.66;4993472;28;20149;-79
2023/03/31 16:27:06;;;;;;;9.05;2.33;;;;;;;14.64;72.44;97550.47;5002585;28;20430;-79
2023/03/31 16:29:35;;;;;;;12.52;2.70;;;;;;;14.58;73.61;97547.50;4996881;28;20054;-79
2023/03/31 16:32:17;;;;;;;9.43;2.53;;;;;;;14.48;71.69;97540.75;5003979;28;20560;-79
2023/03/31 16:34:59;;;;;;;11.75;2.67;;;;;;;14.41;72.69;97536.13;5012890;28;20058;-80
2023/03/31 16:37:26;;;;;;;11.20;2.15;;;;;;;14.39;74.45;97524.88;5002494;28;20426;-79
2023/03/31 16:39:53;;;;;;;10.00;2.67;;;;;;;14.36;74.80;97546.41;4993982;28;20054;-79
2023/03/31 16:42:19;;;;;;;10.85;2.65;;;;;;;14.29;74.87;97548.06;5011146;28;20508;-78
2023/03/31 16:44:46;;;;;;;8.23;2.13;;;;;;;14.25;75.13;97546.72;5010714;28;20506;-78
2023/03/31 16:47:33;;;;;;;10.07;2.33;;;;;;;14.21;74.96;97548.88;5012616;28;20052;-79
2023/03/31 16:50:05;;;;;;;7.47;2.10;;;;;;;14.16;74.48;97544.09;5011369;28;20474;-78
2023/03/31 16:52:33;;;;;;;6.97;1.98;;;;;;;14.15;74.86;97581.28;5012179;28;20430;-80
2023/03/31 16:55:00;;;;;;;6.55;1.50;;;;;;;14.10;74.87;97557.97;5011566;28;20133;-78
2023/03/31 16:57:26;;;;;;;7.78;2.00;;;;;;;14.06;74.49;97564.59;5011785;28;20557;-79
2023/03/31 16:59:53;;;;;;;2.95;0.93;;;;;;;14.00;73.52;97555.50;5011645;28;20073;-78
2023/03/31 17:02:23;;;;;;;3.45;0.85;;;;;;;13.91;73.09;97546.72;5011681;28;20057;-78
2023/03/31 17:04:50;;;;;;;1.63;0.88;;;;;;;13.82;73.25;97558.28;5012026;28;20053;-78
2023/03/31 17:07:21;;;;;;;5.30;0.68;;;;;;;13.67;72.78;97548.34;5011931;28;20054;-79
2023/03/31 17:09:48;;;;;;;2.58;0.98;;;;;;;13.55;73.16;97539.06;5012004;28;20494;-79
2023/03/31 17:12:15;;;;;;;3.92;0.80;;;;;;;13.42;73.76;97540.31;5012092;28;20095;-79
2023/03/31 17:14:41;;;;;;;3.72;1.23;;;;;;;13.30;74.37;97546.88;5012130;28;20153;-79
2023/03/31 17:17:08;;;;;;;5.00;1.30;;;;;;;13.21;74.65;97550.47;5011694;28;20432;-79
2023/03/31 17:19:34;;;;;;;10.63;1.15;;;;;;;13.13;75.08;97561.84;5010672;28;20057;-78
2023/03/31 17:22:02;;;;;;;4.50;1.45;;;;;;;13.06;75.40;97561.66;5011885;28;20054;-79
2023/03/31 17:24:29;;;;;;;5.28;1.45;;;;;;;12.99;75.58;97553.53;5011742;28;20065;-80
2023/03/31 17:26:56;;;;;;;4.13;1.38;;;;;;;12.95;75.81;97559.28;5011258;28;20108;-78
2023/03/31 17:29:23;;;;;;;5.55;1.60;;;;;;;12.89;76.14;97563.38;5011651;28;20801;-79
2023/03/31 17:31:50;;;;;;;5.53;1.77;;;;;;;12.83;76.17;97564.84;5011453;28;20518;-79
2023/03/31 17:34:16;;;;;;;4.90;1.40;;;;;;;12.76;76.46;97556.69;5012002;28;20585;-79
2023/03/31 17:36:43;;;;;;;6.47;1.27;;;;;;;12.70;76.60;97556.50;5006954;28;20068;-79
2023/03/31 17:39:10;;;;;;;8.63;1.42;;;;;;;12.65;77.05;97556.97;4991632;28;20502;-79
2023/03/31 17:41:37;;;;;;;10.68;1.73;;;;;;;12.62;77.23;97558.13;4990685;28;20054;-79
2023/03/31 17:44:06;;;;;;;3.97;1.30;;;;;;;12.58;77.66;97564.69;4991771;28;20086;-79
2023/03/31 17:46:33;;;;;;;5.50;1.92;;;;;;;12.57;77.81;97556.91;4991239;28;20530;-79
2023/03/31 17:49:00;;;;;;;6.85;1.40;;;;;;;12.55;78.06;97557.06;4991754;28;20411;-79
2023/03/31 17:51:27;;;;;;;6.55;1.65;;;;;;;12.54;77.98;97560.69;4991782;28;20050;-79
2023/03/31 17:53:55;;;;;;;2.88;1.15;;;;;;;12.53;77.92;97561.69;4991669;28;20086;-79
2023/03/31 17:56:21;;;;;;;5.18;1.33;;;;;;;12.52;78.04;97565.28;4991536;28;20061;-80
2023/03/31 17:58:48;;;;;;;5.13;1.25;;;;;;;12.51;78.12;97561.00;4991235;28;20065;-79
2023/03/31 18:01:15;;;;;;;2.75;1.38;;;;;;;12.49;78.10;97563.78;4991884;28;20141;-79
2023/03/31 18:03:43;;;;;;;6.32;2.25;;;;;;;12.48;78.31;97564.78;4991532;28;20054;-79
2023/03/31 18:06:12;;;;;;;5.93;1.70;;;;;;;12.47;78.20;97567.56;4990946;28;20054;-79
2023/03/31 18:08:40;;;;;;;6.95;2.65;;;;;;;12.45;78.22;97569.53;4991077;28;20058;-79
2023/03/31 18:11:07;;;;;;;8.65;2.60;;;;;;;12.43;78.53;97574.97;4974046;28;20062;-79
2023/03/31 18:13:35;;;;;;;7.90;2.20;;;;;;;12.42;78.75;97575.13;4991843;28;20073;-79